Time;durP1;ratioP1;P1;durP2;ratioP2;P2;SDS_P1;SDS_P2;PMS_P1;PMS_P2;Temp;Humidity;BMP_temperature;BMP_pressure;BME280_temperature;BME280_humidity;BME280_pressure;Samples;Min_cycle;Max_cycle;Signal;HPM_P1;HPM_P2
2023/03/26 00:00:43;;;;;;;4.33;2.10;;;7.70;99.90;;;;;;5063363;28;20446;-74
2023/03/26 00:03:11;;;;;;;3.17;2.30;;;7.70;99.90;;;;;;5074896;28;20513;-74
2023/03/26 00:05:38;;;;;;;1.80;1.70;;;7.80;99.90;;;;;;5056608;28;20510;-74
2023/03/26 00:08:04;;;;;;;3.37;1.67;;;7.70;99.90;;;;;;5052539;28;20446;-74
2023/03/26 00:10:29;;;;;;;2.07;1.57;;;7.70;99.90;;;;;;5064062;28;20447;-74
2023/03/26 00:12:55;;;;;;;3.10;2.33;;;7.70;99.90;;;;;;5043963;28;20505;-74
2023/03/26 00:15:20;;;;;;;1.73;1.50;;;7.70;99.90;;;;;;5052285;28;20563;-74
2023/03/26 00:17:46;;;;;;;2.33;2.00;;;7.70;99.90;;;;;;5057097;28;20189;-74
2023/03/26 00:20:12;;;;;;;2.87;1.87;;;7.70;99.90;;;;;;5049647;28;20220;-73
2023/03/26 00:22:39;;;;;;;8.13;2.00;;;7.70;99.90;;;;;;5050513;28;20200;-73
2023/03/26 00:25:06;;;;;;;4.43;2.37;;;7.70;99.90;;;;;;5053961;28;20443;-74
2023/03/26 00:27:32;;;;;;;3.57;2.50;;;7.70;99.90;;;;;;5056240;28;20468;-74
2023/03/26 00:29:59;;;;;;;8.03;1.87;;;7.60;99.90;;;;;;5048605;28;20440;-74
2023/03/26 00:32:29;;;;;;;1.70;1.20;;;7.60;99.90;;;;;;5056194;28;20525;-74
2023/03/26 00:34:55;;;;;;;3.10;1.90;;;7.60;99.90;;;;;;5057473;28;20459;-73
2023/03/26 00:37:25;;;;;;;4.47;1.97;;;7.70;99.90;;;;;;5046357;28;20443;-74
2023/03/26 00:39:58;;;;;;;2.83;1.77;;;7.70;99.90;;;;;;5047620;28;20435;-74
2023/03/26 00:42:24;;;;;;;4.10;2.30;;;7.70;99.90;;;;;;5056987;28;20432;-73
2023/03/26 00:44:53;;;;;;;2.47;1.70;;;7.70;99.90;;;;;;5048600;28;21159;-74
2023/03/26 00:47:20;;;;;;;3.53;2.00;;;7.70;99.90;;;;;;5045894;28;20435;-74
2023/03/26 00:49:47;;;;;;;6.07;1.83;;;7.60;99.90;;;;;;5052352;28;20478;-74
2023/03/26 00:52:13;;;;;;;3.47;1.77;;;7.60;99.90;;;;;;5057850;28;20440;-74
2023/03/26 00:54:39;;;;;;;3.47;1.83;;;7.70;99.90;;;;;;5063036;28;20482;-74
2023/03/26 00:57:05;;;;;;;3.03;2.03;;;7.60;99.90;;;;;;5062053;28;20446;-74
2023/03/26 00:59:34;;;;;;;4.27;2.10;;;7.60;99.90;;;;;;5044093;28;20797;-74
2023/03/26 01:02:00;;;;;;;3.23;1.33;;;7.70;99.90;;;;;;5050546;28;20960;-74
2023/03/26 01:04:33;;;;;;;4.20;1.30;;;7.70;99.90;;;;;;5053264;28;20458;-74
2023/03/26 01:07:09;;;;;;;13.77;2.47;;;7.60;99.90;;;;;;5059296;28;20443;-74
2023/03/26 01:09:41;;;;;;;4.37;1.50;;;7.60;99.90;;;;;;5059632;28;20544;-74
2023/03/26 01:12:10;;;;;;;3.57;1.70;;;7.60;99.90;;;;;;5060213;28;20445;-74
2023/03/26 01:14:36;;;;;;;2.63;1.80;;;7.60;99.90;;;;;;5052903;28;20980;-74
2023/03/26 01:17:05;;;;;;;2.00;1.30;;;7.60;99.90;;;;;;5058023;28;20481;-74
2023/03/26 01:19:46;;;;;;;4.80;1.30;;;7.60;99.90;;;;;;5050355;28;20807;-74
2023/03/26 01:22:20;;;;;;;2.30;1.50;;;7.60;99.90;;;;;;5053176;28;20939;-73
2023/03/26 01:24:52;;;;;;;7.33;1.83;;;7.60;99.90;;;;;;5046499;28;20541;-74
2023/03/26 01:27:39;;;;;;;2.77;1.70;;;7.60;99.90;;;;;;5060330;28;20501;-74
2023/03/26 01:30:40;;;;;;;3.83;1.83;;;7.60;99.90;;;;;;5050555;28;20526;-74
2023/03/26 01:33:35;;;;;;;2.83;1.37;;;7.60;99.90;;;;;;5040513;28;20544;-73
2023/03/26 01:36:15;;;;;;;2.13;1.47;;;7.50;99.90;;;;;;5046100;28;20487;-74
2023/03/26 01:39:09;;;;;;;6.70;1.87;;;7.50;99.90;;;;;;5052966;28;20868;-74
2023/03/26 01:41:49;;;;;;;3.43;1.10;;;7.50;99.90;;;;;;5054472;28;20544;-74
2023/03/26 01:44:31;;;;;;;5.00;1.83;;;7.50;99.90;;;;;;5061646;28;20463;-74
2023/03/26 01:46:59;;;;;;;2.10;1.47;;;7.40;99.90;;;;;;5057135;28;20514;-74
2023/03/26 01:49:27;;;;;;;1.30;1.20;;;7.40;99.90;;;;;;5050353;28;20443;-74
2023/03/26 01:51:54;;;;;;;3.50;1.50;;;7.40;99.90;;;;;;5058534;28;20496;-73
2023/03/26 01:54:24;;;;;;;3.77;1.50;;;7.40;99.90;;;;;;5052395;28;20468;-74
2023/03/26 01:56:50;;;;;;;4.53;1.70;;;7.40;99.90;;;;;;5063236;28;20796;-74
2023/03/26 01:59:26;;;;;;;6.70;1.70;;;7.40;99.90;;;;;;5054917;28;20448;-73
2023/03/26 02:02:13;;;;;;;5.63;1.90;;;7.40;99.90;;;;;;5048078;28;20173;-74
2023/03/26 02:05:10;;;;;;;2.60;1.87;;;7.40;99.90;;;;;;5044461;28;20517;-74
2023/03/26 02:07:43;;;;;;;5.10;1.83;;;7.40;99.90;;;;;;5036780;28;20804;-73
2023/03/26 02:10:20;;;;;;;5.87;2.50;;;7.40;99.90;;;;;;5058734;28;20438;-73
2023/03/26 02:12:46;;;;;;;4.40;1.73;;;7.40;99.90;;;;;;5043796;28;20435;-73
2023/03/26 02:15:12;;;;;;;3.50;1.40;;;7.40;99.90;;;;;;5053063;28;20455;-74
2023/03/26 02:17:40;;;;;;;3.27;1.50;;;7.30;99.90;;;;;;5052144;28;20436;-73
2023/03/26 02:20:13;;;;;;;5.80;2.37;;;7.30;99.90;;;;;;5051398;28;20802;-74
2023/03/26 02:22:40;;;;;;;7.90;1.83;;;7.30;99.90;;;;;;5050685;28;20505;-74
2023/03/26 02:25:19;;;;;;;2.43;1.30;;;7.30;99.90;;;;;;5056316;28;20555;-74
2023/03/26 02:27:46;;;;;;;7.53;2.37;;;7.30;99.90;;;;;;5050771;28;20440;-73
2023/03/26 02:30:15;;;;;;;3.83;1.90;;;7.30;99.90;;;;;;5047530;28;20436;-74
2023/03/26 02:32:42;;;;;;;4.47;1.63;;;7.30;99.90;;;;;;5055083;28;20447;-74
2023/03/26 02:35:08;;;;;;;3.30;2.90;;;7.30;99.90;;;;;;5052070;28;20467;-73
2023/03/26 02:37:34;;;;;;;4.73;1.80;;;7.30;99.90;;;;;;5053779;28;20440;-73
2023/03/26 02:40:00;;;;;;;1.43;1.27;;;7.20;99.90;;;;;;5045492;28;20996;-73
2023/03/26 02:42:25;;;;;;;3.17;1.70;;;7.20;99.90;;;;;;5055896;28;20257;-74
2023/03/26 02:44:51;;;;;;;5.10;1.70;;;7.30;99.90;;;;;;5055682;28;20273;-74
2023/03/26 02:47:16;;;;;;;3.13;1.80;;;7.20;99.90;;;;;;5055552;28;20264;-73
2023/03/26 02:49:42;;;;;;;5.17;1.93;;;7.20;99.90;;;;;;5041263;28;20222;-74
2023/03/26 02:52:08;;;;;;;3.07;2.03;;;7.20;99.90;;;;;;5039213;28;20751;-74
2023/03/26 02:54:34;;;;;;;4.30;1.80;;;7.20;99.90;;;;;;5040682;28;20232;-74
2023/03/26 02:57:00;;;;;;;3.13;1.50;;;7.20;99.90;;;;;;5047341;28;20173;-74
2023/03/26 02:59:26;;;;;;;8.17;2.37;;;7.20;99.90;;;;;;5052784;28;20437;-74
2023/03/26 03:01:52;;;;;;;4.60;1.90;;;7.20;99.90;;;;;;5058059;28;20250;-73
2023/03/26 03:04:18;;;;;;;3.80;1.90;;;7.20;99.90;;;;;;5060986;28;20212;-74
2023/03/26 03:06:44;;;;;;;1.77;1.63;;;7.20;99.90;;;;;;5057836;28;20512;-74
2023/03/26 03:09:10;;;;;;;3.73;1.70;;;7.20;99.90;;;;;;5051369;28;20205;-74
2023/03/26 03:11:37;;;;;;;2.47;1.33;;;7.30;99.90;;;;;;5049713;28;20223;-74
2023/03/26 03:14:02;;;;;;;3.00;1.83;;;7.30;99.90;;;;;;5053360;28;20460;-74
2023/03/26 03:16:29;;;;;;;5.13;1.70;;;7.30;99.90;;;;;;5059388;28;20437;-74
2023/03/26 03:18:55;;;;;;;2.67;1.60;;;7.30;99.90;;;;;;5059394;28;20218;-74
2023/03/26 03:21:26;;;;;;;4.93;2.00;;;7.40;99.90;;;;;;5058190;28;21143;-74
2023/03/26 03:23:55;;;;;;;5.67;2.00;;;7.40;99.90;;;;;;5037208;28;20478;-74
2023/03/26 03:26:26;;;;;;;4.67;1.43;;;7.40;99.90;;;;;;5048006;28;20440;-74
2023/03/26 03:28:55;;;;;;;1.73;1.40;;;7.50;99.90;;;;;;5046654;28;20440;-74
2023/03/26 03:31:21;;;;;;;5.77;2.30;;;7.40;99.90;;;;;;5050554;28;20975;-74
2023/03/26 03:33:46;;;;;;;4.00;2.83;;;7.50;99.90;;;;;;5054749;28;20458;-74
2023/03/26 03:36:13;;;;;;;3.97;2.00;;;7.50;99.90;;;;;;5051075;28;20526;-74
2023/03/26 03:38:40;;;;;;;4.33;2.20;;;7.50;99.90;;;;;;5052616;28;20235;-74
2023/03/26 03:41:07;;;;;;;3.03;1.73;;;7.50;99.90;;;;;;5055547;28;20440;-73
2023/03/26 03:43:33;;;;;;;2.60;1.47;;;7.40;99.90;;;;;;5054871;28;20455;-73
2023/03/26 03:45:59;;;;;;;2.27;1.60;;;7.50;99.90;;;;;;5054141;28;20813;-74
2023/03/26 03:48:25;;;;;;;7.60;3.60;;;7.50;99.90;;;;;;5047483;28;20443;-74
2023/03/26 03:50:52;;;;;;;8.60;2.37;;;7.40;99.90;;;;;;5059726;28;20438;-74
2023/03/26 03:53:18;;;;;;;4.80;1.50;;;7.40;99.90;;;;;;5051119;28;20216;-74
2023/03/26 03:55:51;;;;;;;4.30;1.67;;;7.50;99.90;;;;;;5065685;28;20846;-74
2023/03/26 03:58:23;;;;;;;2.23;1.40;;;7.40;99.90;;;;;;5062239;28;20204;-73
2023/03/26 04:00:50;;;;;;;3.53;1.40;;;7.40;99.90;;;;;;5050738;28;20436;-73
2023/03/26 04:03:17;;;;;;;3.40;1.73;;;7.40;99.90;;;;;;5057456;28;20460;-74
2023/03/26 04:05:48;;;;;;;5.80;2.27;;;7.50;99.90;;;;;;5056385;28;21002;-73
2023/03/26 04:08:15;;;;;;;4.67;1.93;;;7.50;99.90;;;;;;5057114;28;20446;-73
2023/03/26 04:10:42;;;;;;;4.13;1.47;;;7.50;99.90;;;;;;5061847;28;20439;-73
2023/03/26 04:13:08;;;;;;;5.07;2.03;;;7.60;99.90;;;;;;5059240;28;20455;-74
2023/03/26 04:15:34;;;;;;;4.20;1.87;;;7.60;99.90;;;;;;5048507;28;20591;-74
2023/03/26 04:18:00;;;;;;;5.20;1.80;;;7.60;99.90;;;;;;5047535;28;20435;-73
2023/03/26 04:20:26;;;;;;;4.23;1.40;;;7.50;99.90;;;;;;5061068;28;20431;-74
2023/03/26 04:22:51;;;;;;;5.57;2.80;;;7.50;99.90;;;;;;5060572;28;20570;-74
2023/03/26 04:25:17;;;;;;;4.43;2.20;;;7.50;99.90;;;;;;5059999;28;20181;-74
2023/03/26 04:27:43;;;;;;;5.40;3.00;;;7.60;99.90;;;;;;5065131;28;20177;-74
2023/03/26 04:30:16;;;;;;;3.20;1.50;;;7.60;99.90;;;;;;5055638;28;20674;-74
2023/03/26 04:32:41;;;;;;;5.27;1.80;;;7.60;99.90;;;;;;5049799;28;20170;-73
2023/03/26 04:35:10;;;;;;;4.20;2.03;;;7.60;99.90;;;;;;5045534;28;20610;-73
2023/03/26 04:37:39;;;;;;;4.40;1.97;;;7.60;99.90;;;;;;5055551;28;20242;-74
2023/03/26 04:40:14;;;;;;;3.67;1.97;;;7.60;99.90;;;;;;5057448;28;20432;-74
2023/03/26 04:42:44;;;;;;;5.43;2.27;;;7.60;99.90;;;;;;5053633;28;20442;-73
2023/03/26 04:45:16;;;;;;;3.27;1.80;;;7.60;99.90;;;;;;5058686;28;20469;-74
2023/03/26 04:47:42;;;;;;;4.10;1.50;;;7.60;99.90;;;;;;5055411;28;20567;-74
2023/03/26 04:50:09;;;;;;;4.83;1.93;;;7.60;99.90;;;;;;5046699;28;20527;-74
2023/03/26 04:52:35;;;;;;;3.70;1.50;;;7.60;99.90;;;;;;5049506;28;20172;-72
2023/03/26 04:55:01;;;;;;;5.13;2.67;;;7.60;99.90;;;;;;5050808;28;20471;-74
2023/03/26 04:57:42;;;;;;;3.50;1.80;;;7.60;99.90;;;;;;5058482;28;20793;-74
2023/03/26 05:00:14;;;;;;;1.67;1.40;;;7.60;99.90;;;;;;5044098;28;20178;-74
2023/03/26 05:02:40;;;;;;;6.00;1.50;;;7.60;99.90;;;;;;5053635;28;20439;-73
2023/03/26 05:05:06;;;;;;;5.27;2.33;;;7.60;99.90;;;;;;5060241;28;20935;-74
2023/03/26 05:07:32;;;;;;;2.63;1.33;;;7.60;99.90;;;;;;5050956;28;20451;-73
2023/03/26 05:09:57;;;;;;;5.30;1.93;;;7.60;99.90;;;;;;5048563;28;20448;-72
2023/03/26 05:12:23;;;;;;;4.07;2.20;;;7.60;99.90;;;;;;5033754;28;20192;-73
2023/03/26 05:14:49;;;;;;;3.33;2.20;;;7.60;99.90;;;;;;5047061;28;20192;-73
2023/03/26 05:17:17;;;;;;;3.23;1.63;;;7.70;99.90;;;;;;5052722;28;20189;-73
2023/03/26 05:19:43;;;;;;;1.90;1.40;;;7.70;99.90;;;;;;5056648;28;20730;-73
2023/03/26 05:22:09;;;;;;;6.43;1.50;;;7.70;99.90;;;;;;5055500;28;20532;-74
2023/03/26 05:24:34;;;;;;;3.50;2.10;;;7.70;99.90;;;;;;5047758;28;20495;-73
2023/03/26 05:27:00;;;;;;;3.13;1.60;;;7.70;99.90;;;;;;5036241;28;20224;-73
2023/03/26 05:29:25;;;;;;;4.67;2.10;;;7.70;99.90;;;;;;5060631;28;20236;-73
2023/03/26 05:31:51;;;;;;;6.40;1.33;;;7.80;99.90;;;;;;5045250;28;20260;-73
2023/03/26 05:34:18;;;;;;;4.20;1.73;;;7.80;99.90;;;;;;5055478;28;20394;-73
2023/03/26 05:36:44;;;;;;;4.23;1.57;;;7.80;99.90;;;;;;5049969;28;20170;-73
2023/03/26 05:39:09;;;;;;;4.70;1.87;;;7.80;99.90;;;;;;5048532;28;20464;-73
2023/03/26 05:41:35;;;;;;;5.20;1.70;;;7.80;99.90;;;;;;5039902;28;20213;-73
2023/03/26 05:44:00;;;;;;;2.77;1.70;;;7.90;99.90;;;;;;5048677;28;20274;-73
2023/03/26 05:46:26;;;;;;;3.50;2.03;;;7.90;99.90;;;;;;5053926;28;20327;-73
2023/03/26 05:48:52;;;;;;;6.60;2.20;;;7.90;99.90;;;;;;5042329;28;20189;-73
2023/03/26 05:51:19;;;;;;;5.53;2.60;;;7.90;99.90;;;;;;5055432;28;20182;-73
2023/03/26 05:53:44;;;;;;;5.03;1.77;;;7.90;99.90;;;;;;5050149;28;20456;-73
2023/03/26 05:56:10;;;;;;;6.23;3.23;;;7.90;99.90;;;;;;5049614;28;20471;-73
2023/03/26 05:58:36;;;;;;;7.40;1.90;;;7.90;99.90;;;;;;5052811;28;20260;-74
2023/03/26 06:01:08;;;;;;;4.43;2.23;;;7.90;99.90;;;;;;5042189;28;20177;-73
2023/03/26 06:03:35;;;;;;;6.83;2.10;;;7.90;99.90;;;;;;5055272;28;20459;-73
2023/03/26 06:06:02;;;;;;;3.10;1.70;;;7.90;99.90;;;;;;5047304;28;21130;-73
2023/03/26 06:08:28;;;;;;;4.47;1.83;;;7.80;99.90;;;;;;5054028;28;20446;-73
2023/03/26 06:10:59;;;;;;;6.23;2.13;;;7.90;99.90;;;;;;5035498;28;20437;-73
2023/03/26 06:13:24;;;;;;;5.90;2.00;;;7.90;99.90;;;;;;5043925;28;20833;-73
2023/03/26 06:15:50;;;;;;;4.97;1.93;;;7.90;99.90;;;;;;5040127;28;20551;-73
2023/03/26 06:18:16;;;;;;;5.07;2.30;;;8.00;99.90;;;;;;5044021;28;20187;-73
2023/03/26 06:20:42;;;;;;;6.47;1.77;;;7.90;99.90;;;;;;5032460;28;20181;-73
2023/03/26 06:23:08;;;;;;;6.10;2.40;;;7.90;99.90;;;;;;5050978;28;20973;-73
2023/03/26 06:25:33;;;;;;;2.13;1.73;;;7.90;99.90;;;;;;5052813;28;20192;-74
2023/03/26 06:27:59;;;;;;;3.97;2.23;;;7.90;99.90;;;;;;5044608;28;20558;-73
2023/03/26 06:30:25;;;;;;;3.53;1.60;;;7.90;99.90;;;;;;5047889;28;20676;-73
2023/03/26 06:32:50;;;;;;;4.63;2.40;;;7.90;99.90;;;;;;5044121;28;20230;-73
2023/03/26 06:35:16;;;;;;;2.00;1.80;;;8.00;99.90;;;;;;5065692;28;20212;-73
2023/03/26 06:37:41;;;;;;;7.57;2.60;;;8.00;99.90;;;;;;5044901;28;20186;-73
2023/03/26 06:40:07;;;;;;;5.47;2.13;;;7.90;99.90;;;;;;5048418;28;20186;-73
2023/03/26 06:42:33;;;;;;;3.50;1.87;;;8.00;99.90;;;;;;5056797;28;20564;-73
2023/03/26 06:44:58;;;;;;;7.53;2.47;;;8.00;99.90;;;;;;5046881;28;20546;-74
2023/03/26 06:47:24;;;;;;;4.83;1.60;;;8.00;99.90;;;;;;5047466;28;20181;-73
2023/03/26 06:49:49;;;;;;;8.00;2.53;;;7.90;99.90;;;;;;5053326;28;20197;-73
2023/03/26 06:52:15;;;;;;;6.13;3.53;;;7.90;99.90;;;;;;5049925;28;20535;-73
2023/03/26 06:54:40;;;;;;;6.83;2.20;;;7.80;99.90;;;;;;5043948;28;20197;-73
2023/03/26 06:57:06;;;;;;;5.97;3.40;;;7.80;99.90;;;;;;5046612;28;20177;-73
2023/03/26 06:59:31;;;;;;;4.40;2.23;;;7.80;99.90;;;;;;5058515;28;20604;-73
2023/03/26 07:01:57;;;;;;;5.90;2.83;;;7.70;99.90;;;;;;5031739;28;20257;-73
2023/03/26 07:04:22;;;;;;;3.20;2.20;;;7.70;99.90;;;;;;5038043;28;20275;-72
2023/03/26 07:06:48;;;;;;;8.43;2.47;;;7.70;99.90;;;;;;5032779;28;20174;-73
2023/03/26 07:09:14;;;;;;;7.67;2.37;;;7.80;99.90;;;;;;5044514;28;20176;-73
2023/03/26 07:11:39;;;;;;;7.00;2.13;;;7.80;99.90;;;;;;5044487;28;20177;-72
2023/03/26 07:14:05;;;;;;;5.43;2.30;;;7.90;99.90;;;;;;5048338;28;20324;-72
2023/03/26 07:16:30;;;;;;;4.30;2.57;;;7.90;99.90;;;;;;5052714;28;20182;-72
2023/03/26 07:18:56;;;;;;;5.73;2.33;;;7.90;99.90;;;;;;5056254;28;20208;-73
2023/03/26 07:21:22;;;;;;;8.60;2.30;;;7.90;99.90;;;;;;5047031;28;20186;-73
2023/03/26 07:23:48;;;;;;;4.63;2.40;;;8.00;99.90;;;;;;5057239;28;20193;-72
2023/03/26 07:26:39;;;;;;;2.43;2.07;;;8.00;99.90;;;;;;5047734;28;20438;-72
2023/03/26 07:29:27;;;;;;;3.70;1.97;;;7.90;99.90;;;;;;5052806;28;20214;-73
2023/03/26 07:32:27;;;;;;;6.17;1.90;;;7.80;99.90;;;;;;5065802;28;20464;-73
2023/03/26 07:35:00;;;;;;;5.53;2.30;;;7.70;99.90;;;;;;5077633;28;20505;-73
2023/03/26 07:37:45;;;;;;;4.30;2.00;;;7.60;99.90;;;;;;5045668;28;20509;-73
2023/03/26 07:40:36;;;;;;;3.33;1.90;;;7.60;99.90;;;;;;5054564;28;20407;-73
2023/03/26 07:43:46;;;;;;;6.43;1.90;;;7.60;99.90;;;;;;5048979;28;20451;-73
2023/03/26 07:46:13;;;;;;;4.20;1.87;;;7.50;99.90;;;;;;5051015;28;20888;-72
2023/03/26 07:48:46;;;;;;;8.37;2.10;;;7.50;99.90;;;;;;5044894;28;20435;-72
2023/03/26 07:51:13;;;;;;;5.00;1.90;;;7.50;99.90;;;;;;5062503;28;20797;-71
2023/03/26 07:53:39;;;;;;;4.93;2.13;;;7.50;99.90;;;;;;5051066;28;20549;-70
2023/03/26 07:56:24;;;;;;;8.50;2.40;;;7.50;99.90;;;;;;5057739;28;20970;-69
2023/03/26 07:58:49;;;;;;;6.63;2.50;;;7.50;99.90;;;;;;5051258;28;20435;-70
2023/03/26 08:02:12;;;;;;;9.53;2.80;;;7.40;99.90;;;;;;5053792;28;21022;-72
2023/03/26 08:04:52;;;;;;;3.37;2.03;;;7.40;99.90;;;;;;5008729;28;20284;-72
2023/03/26 08:07:44;;;;;;;11.27;3.30;;;7.40;99.90;;;;;;5020485;28;20440;-71
2023/03/26 08:10:12;;;;;;;6.83;4.80;;;7.40;99.90;;;;;;5035733;28;20880;-70
2023/03/26 08:13:09;;;;;;;5.77;2.77;;;7.40;99.90;;;;;;5036068;28;21145;-72
2023/03/26 08:15:56;;;;;;;6.70;2.97;;;7.40;99.90;;;;;;5035259;28;20825;-71
2023/03/26 08:18:26;;;;;;;4.37;2.17;;;7.30;99.90;;;;;;5052099;28;20526;-71
2023/03/26 08:21:08;;;;;;;3.37;2.03;;;7.30;99.90;;;;;;5037663;28;20437;-71
2023/03/26 08:23:49;;;;;;;4.80;2.83;;;7.20;99.90;;;;;;5048291;28;20505;-71
2023/03/26 08:26:50;;;;;;;6.40;2.60;;;7.30;99.90;;;;;;5038804;28;20451;-71
2023/03/26 08:29:36;;;;;;;11.70;3.60;;;7.30;99.90;;;;;;5051808;28;20492;-71
2023/03/26 08:32:07;;;;;;;9.77;3.00;;;7.30;99.90;;;;;;5067941;28;20423;-71
2023/03/26 08:34:33;;;;;;;8.40;4.20;;;7.40;99.90;;;;;;5049000;28;20455;-71
2023/03/26 08:36:58;;;;;;;3.53;2.33;;;7.40;99.90;;;;;;5057118;28;20434;-71
2023/03/26 08:39:24;;;;;;;4.47;3.47;;;7.50;99.90;;;;;;5051373;28;20184;-71
2023/03/26 08:42:03;;;;;;;8.90;4.80;;;7.50;99.90;;;;;;5044418;28;20184;-71
2023/03/26 08:44:57;;;;;;;10.23;4.40;;;7.60;99.90;;;;;;5053375;28;20606;-71
2023/03/26 08:47:44;;;;;;;8.37;3.30;;;7.70;99.90;;;;;;5063407;28;20444;-71
2023/03/26 08:50:35;;;;;;;9.23;3.67;;;7.80;99.90;;;;;;5056338;28;20439;-71
2023/03/26 08:53:33;;;;;;;6.90;3.50;;;7.80;99.90;;;;;;5057392;28;20511;-71
2023/03/26 08:56:25;;;;;;;7.57;3.97;;;8.00;99.90;;;;;;5040138;28;20526;-71
2023/03/26 08:59:11;;;;;;;6.30;3.80;;;8.10;99.90;;;;;;5044866;28;20424;-71
2023/03/26 09:02:03;;;;;;;7.57;3.27;;;8.20;99.90;;;;;;5050170;28;20991;-70
2023/03/26 09:04:59;;;;;;;9.03;3.60;;;8.20;99.90;;;;;;5054917;28;20459;-70
2023/03/26 09:07:54;;;;;;;7.23;4.20;;;8.30;99.90;;;;;;5049290;28;20437;-70
2023/03/26 09:10:26;;;;;;;5.83;3.03;;;8.90;99.90;;;;;;5064422;28;20435;-71
2023/03/26 09:13:28;;;;;;;4.90;2.70;;;9.70;99.90;;;;;;5044511;28;20427;-71
2023/03/26 09:16:05;;;;;;;3.60;2.73;;;9.80;99.90;;;;;;5044219;28;20462;-70
2023/03/26 09:18:57;;;;;;;6.43;2.80;;;9.70;99.90;;;;;;5052169;28;20803;-71
2023/03/26 09:21:50;;;;;;;6.47;2.77;;;9.70;99.90;;;;;;5048337;28;20470;-75
2023/03/26 09:24:34;;;;;;;3.07;1.93;;;10.20;99.90;;;;;;5058100;28;20471;-72
2023/03/26 09:27:44;;;;;;;2.10;1.90;;;11.10;99.90;;;;;;5064111;28;20466;-74
2023/03/26 09:30:19;;;;;;;3.10;1.70;;;11.50;99.90;;;;;;5046817;28;20440;-73
2023/03/26 09:33:16;;;;;;;3.80;1.70;;;11.60;99.90;;;;;;5039751;28;20439;-67
2023/03/26 09:35:50;;;;;;;4.93;1.53;;;11.80;99.90;;;;;;5052864;28;20986;-67
2023/03/26 09:38:31;;;;;;;4.50;1.97;;;11.50;99.90;;;;;;5061432;28;20535;-71
2023/03/26 09:41:09;;;;;;;1.60;1.50;;;11.90;99.90;;;;;;5053798;28;20815;-71
2023/03/26 09:43:38;;;;;;;2.60;1.60;;;12.40;99.90;;;;;;5044957;28;20455;-70
2023/03/26 09:46:15;;;;;;;2.97;1.50;;;13.10;99.90;;;;;;5048687;28;20467;-71
2023/03/26 09:49:01;;;;;;;2.33;1.50;;;13.60;99.90;;;;;;5050023;28;20435;-72
2023/03/26 09:51:30;;;;;;;3.20;1.47;;;14.60;99.90;;;;;;5051691;28;20439;-70
2023/03/26 09:53:58;;;;;;;4.40;1.43;;;15.80;99.90;;;;;;5052719;28;20509;-71
2023/03/26 09:56:56;;;;;;;1.70;1.30;;;16.50;99.90;;;;;;5049244;28;20468;-70
2023/03/26 09:59:34;;;;;;;1.40;1.30;;;17.10;99.90;;;;;;5056042;28;20845;-72
2023/03/26 10:02:37;;;;;;;3.33;1.40;;;16.60;99.90;;;;;;5039457;28;20431;-72
2023/03/26 10:05:13;;;;;;;4.60;1.70;;;15.60;99.90;;;;;;5051788;28;20436;-75
2023/03/26 10:07:54;;;;;;;3.23;1.80;;;15.20;99.90;;;;;;5046580;28;20436;-75
2023/03/26 10:10:32;;;;;;;2.47;2.20;;;14.60;99.90;;;;;;5046309;28;20435;-74
2023/03/26 10:13:10;;;;;;;2.27;1.40;;;13.80;99.90;;;;;;5052803;28;20451;-75
2023/03/26 10:15:50;;;;;;;1.93;1.30;;;13.40;99.90;;;;;;5054481;28;20465;-75
2023/03/26 10:18:41;;;;;;;2.20;1.03;;;13.90;99.90;;;;;;5048608;28;20431;-76
2023/03/26 10:21:16;;;;;;;1.70;1.60;;;14.70;99.90;;;;;;5057961;28;21521;-73
2023/03/26 10:24:05;;;;;;;3.10;1.60;;;14.90;99.90;;;;;;5051629;28;20469;-74
2023/03/26 10:26:47;;;;;;;1.50;1.40;;;15.40;99.90;;;;;;5057566;28;20449;-75
2023/03/26 10:29:25;;;;;;;2.40;1.50;;;15.80;99.90;;;;;;5054100;28;20485;-76
2023/03/26 10:32:14;;;;;;;2.70;1.47;;;15.60;99.90;;;;;;5046039;28;20459;-74
2023/03/26 10:35:10;;;;;;;1.40;0.90;;;14.80;99.90;;;;;;5051973;28;21033;-68
2023/03/26 10:37:51;;;;;;;1.20;1.10;;;14.10;99.90;;;;;;5042676;28;20458;-68
2023/03/26 10:40:34;;;;;;;3.10;2.20;;;14.40;99.90;;;;;;5053968;28;20456;-70
2023/03/26 10:43:37;;;;;;;1.70;1.60;;;16.20;99.90;;;;;;5036462;28;20464;-71
2023/03/26 10:46:12;;;;;;;3.90;2.90;;;17.80;99.90;;;;;;5035520;28;20486;-70
2023/03/26 10:49:06;;;;;;;1.63;1.30;;;18.60;97.70;;;;;;5050272;28;20533;-68
2023/03/26 10:51:50;;;;;;;1.77;1.30;;;18.80;96.90;;;;;;5053935;28;20553;-69
2023/03/26 10:54:45;;;;;;;2.20;1.20;;;17.50;97.60;;;;;;5048394;28;21034;-69
2023/03/26 10:57:35;;;;;;;1.90;1.17;;;16.30;99.90;;;;;;5049216;28;20424;-68
2023/03/26 11:00:13;;;;;;;1.30;0.80;;;16.70;99.90;;;;;;5042114;28;20467;-67
2023/03/26 11:02:58;;;;;;;1.97;1.03;;;17.50;98.10;;;;;;5044836;28;20858;-67
2023/03/26 11:06:04;;;;;;;2.17;1.50;;;17.40;96.90;;;;;;5050513;28;20444;-67
2023/03/26 11:08:48;;;;;;;1.83;1.13;;;16.20;98.10;;;;;;5052847;28;20948;-70
2023/03/26 11:11:35;;;;;;;2.53;1.30;;;16.30;99.90;;;;;;5051262;28;20440;-71
2023/03/26 11:14:18;;;;;;;2.43;1.30;;;16.20;98.60;;;;;;5060672;28;20575;-72
2023/03/26 11:17:02;;;;;;;2.50;1.67;;;15.60;99.80;;;;;;5040083;28;20451;-70
2023/03/26 11:19:42;;;;;;;1.43;1.33;;;14.90;99.90;;;;;;5035772;28;20425;-73
2023/03/26 11:22:08;;;;;;;3.27;1.43;;;15.50;99.90;;;;;;5046337;28;20527;-69
2023/03/26 11:24:42;;;;;;;1.80;1.37;;;17.40;99.00;;;;;;5061770;28;20510;-68
2023/03/26 11:27:25;;;;;;;3.33;1.10;;;20.20;92.70;;;;;;5071590;28;20173;-70
2023/03/26 11:30:11;;;;;;;2.37;1.40;;;21.70;80.60;;;;;;5041445;28;20441;-70
2023/03/26 11:32:52;;;;;;;4.77;1.57;;;21.30;74.10;;;;;;5050781;28;20514;-73
2023/03/26 11:35:24;;;;;;;3.07;1.20;;;20.60;75.30;;;;;;5044221;28;20468;-73
2023/03/26 11:37:53;;;;;;;1.17;0.97;;;20.60;73.60;;;;;;5039586;28;20419;-67
2023/03/26 11:40:49;;;;;;;1.53;1.40;;;21.00;73.30;;;;;;5057765;28;20440;-75
2023/03/26 11:43:17;;;;;;;1.00;0.90;;;21.70;65.60;;;;;;5050748;28;20539;-72
2023/03/26 11:45:48;;;;;;;2.40;1.10;;;22.50;62.20;;;;;;5031204;28;20479;-69
2023/03/26 11:48:22;;;;;;;2.10;1.30;;;22.40;58.10;;;;;;5030425;28;20425;-70
2023/03/26 11:50:52;;;;;;;1.33;1.20;;;23.00;58.20;;;;;;5029870;28;20996;-70
2023/03/26 11:53:20;;;;;;;1.80;1.40;;;23.90;56.30;;;;;;5020667;28;20988;-70
2023/03/26 11:56:24;;;;;;;1.40;1.30;;;24.90;51.80;;;;;;5024395;28;20460;-71
2023/03/26 11:59:00;;;;;;;3.07;2.87;;;25.60;51.10;;;;;;5018089;28;21033;-72
2023/03/26 12:01:42;;;;;;;56.17;27.63;;;25.30;49.40;;;;;;5022323;28;20429;-73
2023/03/26 12:04:13;;;;;;;10.33;6.80;;;24.40;50.50;;;;;;5016251;28;20496;-72
2023/03/26 12:06:48;;;;;;;4.63;2.23;;;22.90;50.20;;;;;;5027319;28;20441;-71
2023/03/26 12:09:16;;;;;;;5.10;2.63;;;20.60;52.50;;;;;;5033438;28;20437;-73
2023/03/26 12:11:43;;;;;;;1.83;1.23;;;19.90;52.20;;;;;;5032451;28;20938;-71
2023/03/26 12:14:17;;;;;;;2.90;2.00;;;19.50;53.60;;;;;;5030425;28;20453;-74
2023/03/26 12:17:02;;;;;;;1.60;1.50;;;20.50;53.70;;;;;;5018926;28;20483;-71
2023/03/26 12:19:36;;;;;;;2.90;2.37;;;20.70;54.10;;;;;;5016149;28;20802;-74
2023/03/26 12:22:02;;;;;;;2.30;1.60;;;21.30;52.90;;;;;;5022296;28;20435;-74
2023/03/26 12:24:33;;;;;;;2.10;1.40;;;22.20;50.50;;;;;;5033511;28;20440;-71
2023/03/26 12:27:19;;;;;;;2.77;1.40;;;23.10;49.90;;;;;;5021833;28;20640;-70
2023/03/26 12:30:12;;;;;;;3.67;1.50;;;23.60;47.70;;;;;;5029461;28;20518;-72
2023/03/26 12:32:41;;;;;;;2.00;1.50;;;24.00;46.90;;;;;;5015060;28;20424;-71
2023/03/26 12:35:12;;;;;;;2.27;1.20;;;24.50;43.90;;;;;;5027651;28;20468;-71
2023/03/26 12:37:43;;;;;;;2.53;1.23;;;23.90;44.80;;;;;;5034321;28;20415;-72
2023/03/26 12:40:29;;;;;;;3.43;1.67;;;24.40;43.50;;;;;;5033545;28;20413;-72
2023/03/26 12:43:00;;;;;;;2.73;1.37;;;24.30;44.80;;;;;;5033361;28;20421;-72
2023/03/26 12:45:30;;;;;;;1.70;1.23;;;24.10;44.50;;;;;;5014079;28;20428;-72
2023/03/26 12:47:57;;;;;;;2.17;1.40;;;23.70;44.60;;;;;;5018221;28;20517;-72
2023/03/26 12:50:41;;;;;;;1.60;1.50;;;23.90;44.30;;;;;;5012680;28;20487;-73
2023/03/26 12:53:19;;;;;;;1.83;1.30;;;23.30;45.50;;;;;;5020434;28;20460;-72
2023/03/26 12:56:10;;;;;;;1.43;1.20;;;23.40;45.00;;;;;;5022714;28;20526;-72
2023/03/26 12:58:50;;;;;;;1.80;1.20;;;24.60;43.50;;;;;;5023213;28;20437;-70
2023/03/26 13:01:52;;;;;;;1.90;1.40;;;25.20;42.30;;;;;;5026601;28;20432;-73
2023/03/26 13:04:32;;;;;;;2.90;1.57;;;25.40;41.00;;;;;;5026348;28;20502;-72
2023/03/26 13:07:09;;;;;;;3.60;1.40;;;24.20;41.80;;;;;;5024958;28;20583;-73
2023/03/26 13:10:02;;;;;;;1.83;1.10;;;25.20;41.50;;;;;;5022874;28;20458;-70
2023/03/26 13:12:32;;;;;;;2.00;1.20;;;26.30;40.10;;;;;;5031612;28;20472;-74
2023/03/26 13:15:05;;;;;;;2.13;1.30;;;24.20;41.50;;;;;;5025094;28;20519;-73
2023/03/26 13:17:47;;;;;;;1.60;1.50;;;24.60;41.10;;;;;;5019749;28;20476;-73
2023/03/26 13:20:29;;;;;;;2.80;1.50;;;25.10;40.20;;;;;;5026368;28;21409;-72
2023/03/26 13:23:03;;;;;;;1.93;1.37;;;27.20;39.40;;;;;;5022360;28;20790;-70
2023/03/26 13:25:44;;;;;;;1.93;1.10;;;28.00;36.60;;;;;;5033133;28;20432;-70
2023/03/26 13:28:13;;;;;;;1.80;0.93;;;27.00;36.20;;;;;;5014267;28;20439;-73